createdAt,value
2022-10-12T00:01:17.646Z,101070.74
2022-10-12T00:03:46.374Z,101066.44
2022-10-12T00:06:17.923Z,101068.69
2022-10-12T00:08:48.677Z,101069.55
2022-10-12T00:11:20.370Z,101072.49
2022-10-12T00:13:49.681Z,101067.14
2022-10-12T00:16:20.622Z,101067.66
2022-10-12T00:18:52.400Z,101068.73
2022-10-12T00:21:22.261Z,101069.41
2022-10-12T00:23:51.706Z,101070.64
2022-10-12T00:26:21.779Z,101077.04
2022-10-12T00:28:56.452Z,101069.94
2022-10-12T00:31:26.232Z,101068.39
2022-10-12T00:33:55.331Z,101071.50
2022-10-12T00:36:27.216Z,101072.03
2022-10-12T00:38:56.551Z,101075.67
2022-10-12T00:41:27.472Z,101073.26
2022-10-12T00:43:58.596Z,101073.27
2022-10-12T00:46:33.138Z,101070.68
2022-10-12T00:49:10.037Z,101073.63
2022-10-12T00:51:38.111Z,101071.38
2022-10-12T00:54:14.050Z,101072.42
2022-10-12T00:56:46.864Z,101075.54
2022-10-12T00:59:22.678Z,101076.23
2022-10-12T01:01:51.768Z,101077.97
2022-10-12T01:04:21.531Z,101084.02
2022-10-12T01:06:51.110Z,101086.11
2022-10-12T01:09:21.037Z,101087.50
2022-10-12T01:11:50.339Z,101088.19
2022-10-12T01:14:19.804Z,101091.48
2022-10-12T01:16:52.941Z,101091.30
2022-10-12T01:19:40.689Z,101090.60
2022-10-12T01:22:13.252Z,101090.94
2022-10-12T01:24:51.634Z,101090.60
2022-10-12T01:27:33.832Z,101093.36
2022-10-12T01:30:11.649Z,101095.96
2022-10-12T01:33:03.246Z,101098.05
2022-10-12T01:35:37.981Z,101098.23
2022-10-12T01:38:17.205Z,101096.85
2022-10-12T01:40:55.198Z,101097.54
2022-10-12T01:43:33.160Z,101100.13
2022-10-12T01:46:07.713Z,101099.80
2022-10-12T01:48:36.638Z,101096.17
2022-10-12T01:51:05.922Z,101099.45
2022-10-12T01:53:41.802Z,101100.29
2022-10-12T01:56:18.081Z,101099.60
2022-10-12T01:58:57.691Z,101104.09
2022-10-12T02:01:35.170Z,101110.14
2022-10-12T02:04:11.481Z,101105.48
2022-10-12T02:06:45.081Z,101106.52
2022-10-12T02:09:21.777Z,101108.94
2022-10-12T02:11:54.164Z,101111.88
2022-10-12T02:14:26.808Z,101112.05
2022-10-12T02:16:59.098Z,101111.19
2022-10-12T02:19:30.872Z,101111.71
2022-10-12T02:22:04.174Z,101114.65
2022-10-12T02:24:37.223Z,101113.27
2022-10-12T02:27:07.307Z,101111.71
2022-10-12T02:29:39.783Z,101108.44
2022-10-12T02:32:16.832Z,101112.76
2022-10-12T02:34:50.433Z,101111.03
2022-10-12T02:37:28.304Z,101112.55
2022-10-12T02:40:02.177Z,101111.52
2022-10-12T02:42:46.569Z,101112.90
2022-10-12T02:45:24.490Z,101119.29
2022-10-12T02:47:57.445Z,101117.39
2022-10-12T02:50:27.358Z,101116.70
2022-10-12T02:52:57.595Z,101116.19
2022-10-12T02:55:26.467Z,101119.64
2022-10-12T02:57:55.279Z,101120.33
2022-10-12T03:00:24.352Z,101120.16
2022-10-12T03:02:53.260Z,101118.45
2022-10-12T03:05:22.169Z,101115.85
2022-10-12T03:07:51.727Z,101115.16
2022-10-12T03:10:20.564Z,101115.33
2022-10-12T03:12:50.407Z,101114.80
2022-10-12T03:15:19.476Z,101107.38
2022-10-12T03:17:48.150Z,101106.67
2022-10-12T03:20:17.395Z,101108.41
2022-10-12T03:22:46.274Z,101103.21
2022-10-12T03:25:15.687Z,101104.92
2022-10-12T03:27:44.719Z,101105.27
2022-10-12T03:30:14.638Z,101109.41
2022-10-12T03:32:43.341Z,101113.21
2022-10-12T03:35:12.356Z,101117.02
2022-10-12T03:37:41.265Z,101115.64
2022-10-12T03:40:12.500Z,101119.09
2022-10-12T03:42:41.172Z,101115.80
2022-10-12T03:45:11.917Z,101117.85
2022-10-12T03:47:41.298Z,101119.74
2022-10-12T03:50:11.046Z,101119.91
2022-10-12T03:52:40.361Z,101119.05
2022-10-12T03:55:10.515Z,101115.27
2022-10-12T03:57:39.834Z,101118.70
2022-10-12T04:00:12.463Z,101119.23
2022-10-12T04:02:41.774Z,101122.51
2022-10-12T04:05:10.960Z,101119.05
2022-10-12T04:07:40.536Z,101120.77
2022-10-12T04:10:10.907Z,101118.20
2022-10-12T04:12:40.104Z,101117.50
2022-10-12T04:15:11.246Z,101117.84
2022-10-12T04:17:40.604Z,101115.42
2022-10-12T04:20:12.510Z,101118.02
2022-10-12T04:22:41.767Z,101119.58
2022-10-12T04:25:12.483Z,101120.79
2022-10-12T04:27:41.329Z,101119.58
2022-10-12T04:30:12.848Z,101117.84
2022-10-12T04:32:41.482Z,101120.06
2022-10-12T04:35:10.821Z,101122.98
2022-10-12T04:37:39.683Z,101120.91
2022-10-12T04:40:10.561Z,101123.86
2022-10-12T04:42:39.145Z,101125.41
2022-10-12T04:45:09.817Z,101124.20
2022-10-12T04:47:38.928Z,101121.27
2022-10-12T04:50:09.180Z,101126.44
2022-10-12T04:52:37.813Z,101127.48
2022-10-12T04:55:08.889Z,101126.27
2022-10-12T04:57:37.954Z,101128.16
2022-10-12T05:00:09.613Z,101126.27
2022-10-12T05:02:38.298Z,101138.16
2022-10-12T05:05:08.228Z,101139.55
2022-10-12T05:07:37.135Z,101145.08
2022-10-12T05:10:08.195Z,101145.43
2022-10-12T05:12:37.076Z,101147.69
2022-10-12T05:15:08.127Z,101148.56
2022-10-12T05:17:36.975Z,101149.08
2022-10-12T05:20:09.180Z,101152.52
2022-10-12T05:22:37.973Z,101155.66
2022-10-12T05:25:09.148Z,101157.91
2022-10-12T05:27:38.051Z,101157.61
2022-10-12T05:30:09.285Z,101159.87
2022-10-12T05:32:38.369Z,101163.86
2022-10-12T05:35:08.962Z,101162.65
2022-10-12T05:37:37.832Z,101164.89
2022-10-12T05:40:08.429Z,101167.99
2022-10-12T05:42:37.345Z,101172.46
2022-10-12T05:45:08.022Z,101170.55
2022-10-12T05:47:37.079Z,101171.54
2022-10-12T05:50:08.162Z,101173.91
2022-10-12T05:52:37.303Z,101175.59
2022-10-12T05:55:08.402Z,101173.45
2022-10-12T05:57:37.345Z,101170.74
2022-10-12T06:00:09.243Z,101171.85
2022-10-12T06:02:41.144Z,101172.56
2022-10-12T06:05:10.116Z,101172.74
2022-10-12T06:07:38.900Z,101167.42
2022-10-12T06:10:09.490Z,101169.14
2022-10-12T06:12:38.661Z,101167.52
2022-10-12T06:15:10.338Z,101172.73
2022-10-12T06:17:38.932Z,101174.32
2022-10-12T06:20:09.601Z,101171.11
2022-10-12T06:22:38.912Z,101178.88
2022-10-12T06:25:08.994Z,101177.17
2022-10-12T06:27:37.741Z,101172.78
2022-10-12T06:30:08.272Z,101171.87
2022-10-12T06:32:37.239Z,101174.14
2022-10-12T06:35:09.646Z,101173.07
2022-10-12T06:37:49.645Z,101175.67
2022-10-12T06:40:19.208Z,101170.31
2022-10-12T06:42:49.355Z,101170.83
2022-10-12T06:45:18.534Z,101165.72
2022-10-12T06:47:47.927Z,101162.44
2022-10-12T06:50:16.822Z,101159.13
2022-10-12T06:52:47.082Z,101163.73
2022-10-12T06:55:21.658Z,101164.97
2022-10-12T06:57:51.347Z,101163.51
2022-10-12T07:00:20.222Z,101164.19
2022-10-12T07:02:51.221Z,101167.17
2022-10-12T07:05:20.893Z,101165.25
2022-10-12T07:07:49.739Z,101164.92
2022-10-12T07:10:18.654Z,101157.60
2022-10-12T07:12:48.217Z,101160.91
2022-10-12T07:15:17.135Z,101159.12
2022-10-12T07:17:45.804Z,101161.23
2022-10-12T07:20:14.612Z,101163.50
2022-10-12T07:22:44.340Z,101166.12
2022-10-12T07:25:13.155Z,101162.41
2022-10-12T07:27:42.044Z,101158.07
2022-10-12T07:30:13.386Z,101154.45
2022-10-12T07:32:43.919Z,101158.73
2022-10-12T07:35:12.636Z,101157.80
2022-10-12T07:37:41.714Z,101158.17
2022-10-12T07:40:11.455Z,101159.88
2022-10-12T07:42:59.199Z,101151.30
2022-10-12T07:45:28.927Z,101153.63
2022-10-12T07:47:57.575Z,101154.42
2022-10-12T07:50:26.254Z,101149.09
2022-10-12T07:52:55.038Z,101148.33
2022-10-12T07:55:24.011Z,101150.98
2022-10-12T07:57:52.626Z,101149.00
2022-10-12T08:00:21.648Z,101151.36
2022-10-12T08:02:50.446Z,101154.17
2022-10-12T08:05:20.611Z,101157.05
2022-10-12T08:07:49.924Z,101157.60
2022-10-12T08:10:19.552Z,101153.72
2022-10-12T08:12:51.882Z,101150.11
2022-10-12T08:15:21.232Z,101150.89
2022-10-12T08:17:50.441Z,101154.17
2022-10-12T08:20:19.203Z,101154.41
2022-10-12T08:22:47.807Z,101157.55
2022-10-12T08:25:16.768Z,101154.73
2022-10-12T08:27:45.768Z,101151.38
2022-10-12T08:30:14.978Z,101149.86
2022-10-12T08:32:43.668Z,101149.59
2022-10-12T08:35:12.350Z,101147.96
2022-10-12T08:37:41.174Z,101149.25
2022-10-12T08:40:16.785Z,101149.52
2022-10-12T08:42:55.411Z,101146.35
2022-10-12T08:45:37.363Z,101147.69
2022-10-12T08:48:12.092Z,101145.36
2022-10-12T08:50:47.641Z,101148.91
2022-10-12T08:53:22.653Z,101154.89
2022-10-12T08:55:52.134Z,101155.67
2022-10-12T08:58:23.682Z,101158.55
2022-10-12T09:00:55.221Z,101160.11
2022-10-12T09:03:42.541Z,101158.23
2022-10-12T09:06:18.627Z,101155.27
2022-10-12T09:09:00.855Z,101155.52
2022-10-12T09:11:50.160Z,101153.93
2022-10-12T09:14:23.296Z,101150.80
2022-10-12T09:16:55.189Z,101146.00
2022-10-12T09:19:32.712Z,101148.02
2022-10-12T09:22:04.491Z,101148.02
2022-10-12T09:24:38.657Z,101147.22
2022-10-12T09:27:15.267Z,101143.40
2022-10-12T09:29:48.701Z,101144.61
2022-10-12T09:32:43.515Z,101142.20
2022-10-12T09:35:14.059Z,101144.84
2022-10-12T09:37:46.571Z,101137.06
2022-10-12T09:40:21.412Z,101138.20
2022-10-12T09:42:51.004Z,101146.19
2022-10-12T09:45:21.667Z,101142.85
2022-10-12T09:48:13.478Z,101142.44
2022-10-12T09:50:45.634Z,101141.86
2022-10-12T09:53:20.585Z,101143.20
2022-10-12T09:55:56.003Z,101146.12
2022-10-12T09:58:27.460Z,101147.06
2022-10-12T10:01:30.095Z,101147.63
2022-10-12T10:04:13.084Z,101150.14
2022-10-12T10:06:44.427Z,101151.59
2022-10-12T10:09:31.644Z,101149.32
2022-10-12T10:12:13.112Z,101143.41
2022-10-12T10:14:44.485Z,101147.02
2022-10-12T10:17:17.283Z,101142.17
2022-10-12T10:19:51.027Z,101140.85
2022-10-12T10:22:21.084Z,101149.67
2022-10-12T10:24:54.287Z,101146.19
2022-10-12T10:27:29.434Z,101144.18
2022-10-12T10:30:32.583Z,101144.21
2022-10-12T10:33:16.874Z,101139.17
2022-10-12T10:35:59.518Z,101136.48
2022-10-12T10:38:30.538Z,101137.31
2022-10-12T10:41:02.510Z,101129.25
2022-10-12T10:43:32.283Z,101127.77
2022-10-12T10:46:03.455Z,101124.67
2022-10-12T10:48:41.466Z,101119.76
2022-10-12T10:51:10.319Z,101126.88
2022-10-12T10:53:45.950Z,101122.20
2022-10-12T10:56:20.497Z,101121.70
2022-10-12T10:58:52.158Z,101122.56
2022-10-12T11:01:29.509Z,101119.41
2022-10-12T11:04:02.779Z,101119.70
2022-10-12T11:06:40.424Z,101117.64
2022-10-12T11:09:14.635Z,101112.84
2022-10-12T11:11:45.704Z,101115.82
2022-10-12T11:14:18.053Z,101119.82
2022-10-12T11:16:52.614Z,101118.02
2022-10-12T11:19:30.327Z,101116.48
2022-10-12T11:22:03.825Z,101115.92
2022-10-12T11:24:40.347Z,101113.65
2022-10-12T11:27:14.383Z,101111.69
2022-10-12T11:29:43.383Z,101109.70
2022-10-12T11:32:22.927Z,101106.73
2022-10-12T11:34:55.158Z,101104.30
2022-10-12T11:37:32.359Z,101103.52
2022-10-12T11:40:04.259Z,101103.05
2022-10-12T11:42:43.095Z,101100.08
2022-10-12T11:45:22.235Z,101099.04
2022-10-12T11:47:55.859Z,101098.56
2022-10-12T11:50:32.226Z,101092.10
2022-10-12T11:53:03.887Z,101092.23
2022-10-12T11:55:55.163Z,101086.83
2022-10-12T11:58:48.634Z,101086.61
2022-10-12T12:01:34.536Z,101087.23
2022-10-12T12:07:48.507Z,101088.85
2022-10-12T12:10:58.989Z,101088.07
2022-10-12T12:13:27.972Z,101090.45
2022-10-12T12:16:30.478Z,101087.13
2022-10-12T12:19:31.447Z,101087.05
2022-10-12T12:22:19.550Z,101089.18
2022-10-12T12:24:59.262Z,101091.91
2022-10-12T12:27:38.274Z,101090.34
2022-10-12T12:30:25.812Z,101086.58
2022-10-12T12:32:56.514Z,101087.53
2022-10-12T12:35:29.803Z,101092.44
2022-10-12T12:38:16.751Z,101091.23
2022-10-12T12:41:16.256Z,101091.17
2022-10-12T12:44:03.393Z,101089.98
2022-10-12T12:47:26.441Z,101084.96
2022-10-12T12:50:00.989Z,101086.41
2022-10-12T12:52:32.398Z,101085.11
2022-10-12T12:55:28.848Z,101089.61
2022-10-12T12:58:20.112Z,101087.84
2022-10-12T13:00:59.188Z,101088.23
2022-10-12T13:03:50.623Z,101093.69
2022-10-12T13:07:06.964Z,101092.27
2022-10-12T13:09:54.245Z,101093.77
2022-10-12T13:12:27.153Z,101093.05
2022-10-12T13:15:12.737Z,101093.19
2022-10-12T13:17:58.327Z,101094.27
2022-10-12T13:20:30.944Z,101096.64
2022-10-12T13:23:02.757Z,101094.23
2022-10-12T13:25:35.778Z,101092.41
2022-10-12T13:28:10.208Z,101092.52
2022-10-12T13:30:45.826Z,101089.46
2022-10-12T13:33:32.017Z,101088.17
2022-10-12T13:36:19.599Z,101079.61
2022-10-12T13:38:53.921Z,101088.90
2022-10-12T13:41:24.984Z,101084.84
2022-10-12T13:43:56.832Z,101085.64
2022-10-12T13:46:41.921Z,101084.60
2022-10-12T13:49:16.757Z,101087.73
2022-10-12T13:51:48.034Z,101088.62
2022-10-12T13:54:21.168Z,101088.26
2022-10-12T13:56:53.425Z,101086.63
2022-10-12T13:59:28.223Z,101088.52
2022-10-12T14:02:00.109Z,101090.82
2022-10-12T14:04:30.443Z,101086.23
2022-10-12T14:07:03.478Z,101090.81
2022-10-12T14:09:41.152Z,101092.02
2022-10-12T14:12:11.368Z,101091.63
2022-10-12T14:14:42.969Z,101092.14
2022-10-12T14:17:15.560Z,101091.10
2022-10-12T14:19:46.232Z,101091.27
2022-10-12T14:22:21.559Z,101090.42
2022-10-12T14:24:52.208Z,101090.80
2022-10-12T14:27:30.278Z,101092.89
2022-10-12T14:30:06.568Z,101093.30
2022-10-12T14:32:41.860Z,101093.16
2022-10-12T14:35:21.942Z,101092.88
2022-10-12T14:37:52.544Z,101091.65
2022-10-12T14:40:31.940Z,101094.45
2022-10-12T14:43:04.350Z,101093.33
2022-10-12T14:45:33.944Z,101093.05
2022-10-12T14:48:04.455Z,101091.52
2022-10-12T14:50:33.840Z,101090.60
2022-10-12T14:53:06.129Z,101091.96
2022-10-12T14:55:35.307Z,101092.55
2022-10-12T14:58:07.528Z,101091.93
2022-10-12T15:00:37.612Z,101093.71
2022-10-12T15:03:06.347Z,101095.47
2022-10-12T15:05:36.216Z,101097.95
2022-10-12T15:08:08.340Z,101102.87
2022-10-12T15:10:37.971Z,101100.74
2022-10-12T15:13:06.633Z,101094.92
2022-10-12T15:15:39.871Z,101096.33
2022-10-12T15:18:09.107Z,101093.48
2022-10-12T15:20:38.973Z,101098.00
2022-10-12T15:23:07.771Z,101096.98
2022-10-12T15:25:45.923Z,101100.63
2022-10-12T15:28:14.780Z,101098.33
2022-10-12T15:31:04.636Z,101094.80
2022-10-12T15:33:32.307Z,101095.30
2022-10-12T15:36:01.073Z,101098.26
2022-10-12T15:38:29.835Z,101096.45
2022-10-12T15:40:58.526Z,101094.99
2022-10-12T15:43:27.515Z,101093.23
2022-10-12T15:45:58.004Z,101090.30
2022-10-12T15:48:28.372Z,101087.77
2022-10-12T15:50:57.131Z,101088.29
2022-10-12T15:53:26.757Z,101090.99
2022-10-12T15:55:55.820Z,101091.21
2022-10-12T15:58:25.532Z,101091.08
2022-10-12T16:00:55.793Z,101093.09
2022-10-12T16:03:27.407Z,101089.80
2022-10-12T16:05:56.164Z,101092.73
2022-10-12T16:08:26.078Z,101096.90
2022-10-12T16:10:54.998Z,101095.48
2022-10-12T16:13:23.765Z,101097.70
2022-10-12T16:15:52.621Z,101099.93
2022-10-12T16:18:21.382Z,101099.15
2022-10-12T16:20:54.030Z,101099.09
2022-10-12T16:23:25.512Z,101100.23
2022-10-12T16:25:54.983Z,101099.79
2022-10-12T16:28:24.686Z,101103.57
2022-10-12T16:30:53.956Z,101104.36
2022-10-12T16:33:22.604Z,101104.47
2022-10-12T16:35:51.506Z,101104.53
2022-10-12T16:38:20.397Z,101104.08
2022-10-12T16:40:50.043Z,101104.50
2022-10-12T16:43:19.602Z,101100.14
2022-10-12T16:45:56.489Z,101102.08
2022-10-12T16:48:25.974Z,101099.98
2022-10-12T16:50:54.909Z,101102.46
2022-10-12T16:53:23.634Z,101100.08
2022-10-12T16:55:52.351Z,101098.89
2022-10-12T16:58:21.056Z,101096.89
2022-10-12T17:00:49.824Z,101097.06
2022-10-12T17:03:18.671Z,101093.95
2022-10-12T17:05:47.396Z,101097.30
2022-10-12T17:08:16.393Z,101100.11
2022-10-12T17:10:45.541Z,101103.66
2022-10-12T17:13:14.277Z,101100.77
2022-10-12T17:15:43.143Z,101100.45
2022-10-12T17:18:11.908Z,101100.52
2022-10-12T17:20:40.599Z,101101.42
2022-10-12T17:23:09.474Z,101101.45
2022-10-12T17:25:38.315Z,101103.36
2022-10-12T17:28:07.146Z,101103.21
2022-10-12T17:30:37.977Z,101102.83
2022-10-12T17:33:06.801Z,101104.07
2022-10-12T17:35:40.877Z,101103.58
2022-10-12T17:38:09.473Z,101107.45
2022-10-12T17:40:40.072Z,101105.13
2022-10-12T17:43:08.654Z,101106.09
2022-10-12T17:45:39.848Z,101106.69
2022-10-12T17:48:08.503Z,101106.41
2022-10-12T17:50:37.612Z,101104.05
2022-10-12T17:53:06.899Z,101101.29
2022-10-12T17:55:48.274Z,101098.16
2022-10-12T17:58:17.770Z,101098.53
2022-10-12T18:00:46.541Z,101094.38
2022-10-12T18:03:15.236Z,101089.70
2022-10-12T18:05:43.863Z,101090.08
2022-10-12T18:08:12.859Z,101091.56
2022-10-12T18:10:41.555Z,101091.30
2022-10-12T18:13:10.247Z,101092.73
2022-10-12T18:15:43.231Z,101093.17
2022-10-12T18:18:15.211Z,101096.33
2022-10-12T18:20:44.272Z,101100.90
2022-10-12T18:23:13.682Z,101100.61
2022-10-12T18:25:43.226Z,101098.91
2022-10-12T18:28:13.409Z,101094.64
2022-10-12T18:30:50.637Z,101096.44
2022-10-12T18:33:19.428Z,101092.50
2022-10-12T18:35:48.377Z,101096.73
2022-10-12T18:38:17.269Z,101097.10
2022-10-12T18:40:46.903Z,101098.69
2022-10-12T18:43:15.662Z,101102.20
2022-10-12T18:45:45.164Z,101099.94
2022-10-12T18:48:14.557Z,101100.33
2022-10-12T18:50:43.291Z,101100.35
2022-10-12T18:53:12.530Z,101100.48
2022-10-12T18:55:41.281Z,101104.50
2022-10-12T18:58:10.008Z,101105.68
2022-10-12T19:00:40.985Z,101106.92
2022-10-12T19:03:17.820Z,101104.00
2022-10-12T19:05:45.698Z,101106.35
2022-10-12T19:08:14.449Z,101107.18
2022-10-12T19:10:43.112Z,101103.25
2022-10-12T19:13:12.075Z,101106.09
2022-10-12T19:15:40.855Z,101108.17
2022-10-12T19:18:09.529Z,101106.80
2022-10-12T19:20:38.308Z,101105.66
2022-10-12T19:23:07.035Z,101106.52
2022-10-12T19:25:38.328Z,101106.38
2022-10-12T19:28:08.723Z,101107.98
2022-10-12T19:30:39.129Z,101109.61
2022-10-12T19:33:07.936Z,101109.64
2022-10-12T19:35:40.295Z,101112.98
2022-10-12T19:38:09.042Z,101111.96
2022-10-12T19:40:37.757Z,101113.48
2022-10-12T19:43:07.353Z,101116.16
2022-10-12T19:45:39.533Z,101114.66
2022-10-12T19:48:09.297Z,101114.77
2022-10-12T19:50:37.974Z,101115.52
2022-10-12T19:53:06.855Z,101116.30
2022-10-12T19:55:38.788Z,101117.04
2022-10-12T19:58:08.006Z,101119.70
2022-10-12T20:00:37.626Z,101118.13
2022-10-12T20:03:07.096Z,101117.13
2022-10-12T20:05:37.028Z,101111.29
2022-10-12T20:08:06.076Z,101113.39
2022-10-12T20:10:37.619Z,101110.98
2022-10-12T20:13:06.560Z,101108.54
2022-10-12T20:15:35.351Z,101106.63
2022-10-12T20:18:04.658Z,101107.36
2022-10-12T20:20:34.089Z,101108.46
2022-10-12T20:23:02.740Z,101106.77
2022-10-12T20:25:31.082Z,101110.83
2022-10-12T20:28:02.278Z,101108.83
2022-10-12T20:30:31.263Z,101107.83
2022-10-12T20:33:00.547Z,101107.19
2022-10-12T20:35:29.379Z,101109.66
2022-10-12T20:37:58.063Z,101111.05
2022-10-12T20:40:27.358Z,101115.26
2022-10-12T20:42:57.234Z,101116.47
2022-10-12T20:45:25.895Z,101116.44
2022-10-12T20:47:54.661Z,101115.92
2022-10-12T20:50:23.825Z,101116.45
2022-10-12T20:52:56.080Z,101118.02
2022-10-12T20:55:25.256Z,101117.33
2022-10-12T20:57:54.063Z,101114.42
2022-10-12T21:00:23.158Z,101113.77
2022-10-12T21:02:52.278Z,101114.52
2022-10-12T21:05:21.354Z,101118.15
2022-10-12T21:07:50.175Z,101118.02
2022-10-12T21:10:18.864Z,101119.70
2022-10-12T21:12:47.575Z,101116.80
2022-10-12T21:15:16.956Z,101115.84
2022-10-12T21:17:46.000Z,101119.93
2022-10-12T21:20:15.094Z,101123.34
2022-10-12T21:22:46.065Z,101122.55
2022-10-12T21:25:14.960Z,101120.02
2022-10-12T21:27:44.004Z,101122.52
2022-10-12T21:30:13.662Z,101120.96
2022-10-12T21:32:42.387Z,101120.79
2022-10-12T21:35:11.306Z,101123.61
2022-10-12T21:37:40.046Z,101127.91
2022-10-12T21:40:11.167Z,101129.77
2022-10-12T21:42:39.840Z,101130.61
2022-10-12T21:45:10.088Z,101130.69
2022-10-12T21:47:38.931Z,101130.39
2022-10-12T21:50:09.649Z,101128.34
2022-10-12T21:52:41.000Z,101128.88
2022-10-12T21:55:10.220Z,101129.82
2022-10-12T21:57:39.133Z,101130.61
2022-10-12T22:00:10.686Z,101127.41
2022-10-12T22:02:42.551Z,101128.71
2022-10-12T22:05:11.267Z,101129.88
2022-10-12T22:07:42.514Z,101131.20
2022-10-12T22:10:11.782Z,101131.10
2022-10-12T22:12:40.403Z,101129.64
2022-10-12T22:15:11.223Z,101134.94
2022-10-12T22:17:40.166Z,101135.36
2022-10-12T22:20:11.723Z,101134.38
2022-10-12T22:22:42.019Z,101133.56
2022-10-12T22:25:10.805Z,101132.59
2022-10-12T22:27:39.389Z,101129.52
2022-10-12T22:30:09.562Z,101130.09
2022-10-12T22:32:38.252Z,101129.27
2022-10-12T22:35:08.573Z,101133.45
2022-10-12T22:37:37.613Z,101131.41
2022-10-12T22:40:09.270Z,101131.45
2022-10-12T22:42:37.878Z,101128.88
2022-10-12T22:45:08.672Z,101130.61
2022-10-12T22:47:37.526Z,101127.48
2022-10-12T22:50:08.769Z,101128.35
2022-10-12T22:52:37.600Z,101128.00
2022-10-12T22:55:08.613Z,101130.73
2022-10-12T22:57:37.432Z,101130.23
2022-10-12T23:00:08.351Z,101130.23
2022-10-12T23:02:37.007Z,101130.90
2022-10-12T23:05:07.256Z,101131.23
2022-10-12T23:07:35.905Z,101130.34
2022-10-12T23:10:05.294Z,101132.41
2022-10-12T23:12:33.968Z,101130.52
2022-10-12T23:15:02.687Z,101131.20
2022-10-12T23:17:31.414Z,101128.95
2022-10-12T23:20:00.009Z,101129.98
2022-10-12T23:22:29.271Z,101132.98
2022-10-12T23:24:58.102Z,101133.05
2022-10-12T23:27:27.907Z,101134.86
2022-10-12T23:29:56.522Z,101133.73
2022-10-12T23:32:25.310Z,101132.44
2022-10-12T23:34:54.035Z,101133.79
2022-10-12T23:37:22.676Z,101136.67
2022-10-12T23:39:51.344Z,101134.91
2022-10-12T23:42:20.328Z,101135.36
2022-10-12T23:44:50.719Z,101136.89
2022-10-12T23:47:19.338Z,101134.70
2022-10-12T23:49:48.098Z,101131.17
2022-10-12T23:52:17.091Z,101129.34
2022-10-12T23:54:45.917Z,101131.14
2022-10-12T23:57:41.523Z,101134.84
